Time;durP1;ratioP1;P1;durP2;ratioP2;P2;SDS_P1;SDS_P2;PMS_P1;PMS_P2;Temp;Humidity;BMP_temperature;BMP_pressure;BME280_temperature;BME280_humidity;BME280_pressure;Samples;Min_cycle;Max_cycle;Signal;HPM_P1;HPM_P2
2021/12/12 00:01:46;;;;;;;;;;;11.00;99.90;;;;;;5077193;28;20347;-79
2021/12/12 00:04:15;;;;;;;;;;;11.00;99.90;;;;;;5056140;28;19908;-79
2021/12/12 00:06:43;;;;;;;;;;;11.00;99.90;;;;;;5059101;28;19914;-79
2021/12/12 00:09:13;;;;;;;;;;;11.00;99.90;;;;;;5077156;28;19954;-79
2021/12/12 00:11:39;;;;;;;;;;;11.00;99.90;;;;;;5076530;28;19928;-79
2021/12/12 00:14:09;;;;;;;;;;;11.00;99.90;;;;;;5059050;28;19916;-79
2021/12/12 00:16:34;;;;;;;;;;;11.00;99.90;;;;;;5076954;28;19908;-79
2021/12/12 00:19:00;;;;;;;;;;;11.00;99.90;;;;;;5058922;28;19953;-80
2021/12/12 00:21:27;;;;;;;;;;;10.90;99.90;;;;;;5076835;28;19916;-78
2021/12/12 00:23:53;;;;;;;;;;;10.90;99.90;;;;;;5076642;28;19908;-80
2021/12/12 00:26:19;;;;;;;;;;;10.90;99.90;;;;;;5076985;28;19958;-80
2021/12/12 00:28:45;;;;;;;;;;;11.00;99.90;;;;;;5076666;28;19908;-79
2021/12/12 00:31:12;;;;;;;;;;;11.10;99.90;;;;;;5076664;28;19915;-80
2021/12/12 00:33:40;;;;;;;;;;;11.10;99.90;;;;;;5076579;28;20372;-79
2021/12/12 00:36:05;;;;;;;;;;;11.10;99.90;;;;;;5076550;28;19909;-80
2021/12/12 00:38:32;;;;;;;;;;;11.10;99.90;;;;;;5076502;28;19908;-79
2021/12/12 00:41:02;;;;;;;;;;;11.10;99.90;;;;;;5058488;28;19909;-79
2021/12/12 00:43:31;;;;;;;;;;;11.10;99.90;;;;;;5076464;28;19908;-79
2021/12/12 00:45:58;;;;;;;;;;;11.10;99.90;;;;;;5076323;28;19933;-80
2021/12/12 00:48:25;;;;;;;;;;;11.20;99.90;;;;;;5076320;28;19909;-79
2021/12/12 00:50:51;;;;;;;;;;;11.20;99.90;;;;;;5076337;28;19913;-79
2021/12/12 00:53:20;;;;;;;;;;;11.20;99.90;;;;;;5076372;28;20054;-78
2021/12/12 00:55:46;;;;;;;;;;;11.10;99.90;;;;;;5076174;28;19912;-79
2021/12/12 00:58:13;;;;;;;;;;;11.10;99.90;;;;;;5075635;28;20058;-79
2021/12/12 01:00:43;;;;;;;;;;;11.20;99.90;;;;;;5076218;28;19908;-78
2021/12/12 01:03:10;;;;;;;;;;;11.10;99.90;;;;;;5076298;28;19915;-79
2021/12/12 01:05:36;;;;;;;;;;;11.00;99.90;;;;;;5076013;28;19915;-79
2021/12/12 01:08:03;;;;;;;;;;;11.10;99.90;;;;;;5075953;28;20365;-79
2021/12/12 01:10:34;;;;;;;;;;;11.20;99.90;;;;;;5075915;28;20329;-79
2021/12/12 01:13:02;;;;;;;;;;;11.20;99.90;;;;;;5075385;28;19956;-79
2021/12/12 01:15:32;;;;;;;;;;;11.40;99.90;;;;;;5075813;28;19908;-79
2021/12/12 01:18:00;;;;;;;;;;;11.50;99.90;;;;;;5057728;28;19915;-79
2021/12/12 01:20:39;;;;;;;;;;;11.50;99.90;;;;;;5075770;28;19944;-79
2021/12/12 01:23:08;;;;;;;;;;;11.40;99.90;;;;;;5075674;28;19916;-79
2021/12/12 01:25:36;;;;;;;;;;;11.50;99.90;;;;;;5075687;28;20353;-79
2021/12/12 01:28:03;;;;;;;;;;;11.50;99.90;;;;;;5057690;28;19908;-79
2021/12/12 01:30:29;;;;;;;;;;;11.50;99.90;;;;;;5075526;28;19999;-80
2021/12/12 01:32:55;;;;;;;;;;;11.40;99.90;;;;;;5075574;28;19948;-79
2021/12/12 01:35:21;;;;;;;;;;;11.50;99.90;;;;;;5075477;28;19908;-78
2021/12/12 01:40:54;;;;;;;;;;;11.60;99.90;;;;;;4994011;28;20012;-79
2021/12/12 01:43:25;;;;;;;;;;;11.60;99.90;;;;;;5059252;28;19908;-79
2021/12/12 01:46:01;;;;;;;;;;;11.50;99.90;;;;;;5075858;28;19999;-79
2021/12/12 01:48:42;;;;;;;;;;;11.50;99.90;;;;;;5057011;28;19932;-79
2021/12/12 01:51:09;;;;;;;;;;;11.60;99.90;;;;;;5075244;28;19935;-79
2021/12/12 01:53:37;;;;;;;;;;;11.60;99.90;;;;;;5075008;28;19913;-80
2021/12/12 01:56:13;;;;;;;;;;;11.60;99.90;;;;;;5057010;28;20006;-79
2021/12/12 01:58:39;;;;;;;;;;;11.50;99.90;;;;;;5057114;28;19916;-78
2021/12/12 02:01:17;;;;;;;;;;;11.50;99.90;;;;;;5075082;28;19951;-79
2021/12/12 02:03:45;;;;;;;;;;;11.50;99.90;;;;;;5075388;28;19909;-79
2021/12/12 02:06:12;;;;;;;;;;;11.50;99.90;;;;;;5074809;28;19916;-79
2021/12/12 02:08:38;;;;;;;;;;;11.50;99.90;;;;;;5075347;28;19908;-79
2021/12/12 02:11:09;;;;;;;;;;;11.50;99.90;;;;;;5074446;28;19951;-79
2021/12/12 02:13:40;;;;;;;;;;;11.50;99.90;;;;;;5074687;28;20015;-79
2021/12/12 02:16:06;;;;;;;;;;;11.40;99.90;;;;;;5074714;28;19916;-79
2021/12/12 02:18:36;;;;;;;;;;;11.40;99.90;;;;;;5074666;28;19954;-80
2021/12/12 02:21:14;;;;;;;;;;;11.40;99.90;;;;;;5056600;28;20289;-79
2021/12/12 02:37:24;;;;;;;;;;;11.40;99.90;;;;;;5074257;28;20000;-79
2021/12/12 02:39:50;;;;;;;;;;;11.40;99.90;;;;;;5074172;28;20352;-79
2021/12/12 02:42:18;;;;;;;;;;;11.40;99.90;;;;;;5074347;28;19965;-79
2021/12/12 02:44:44;;;;;;;;;;;11.50;99.90;;;;;;5074151;28;20007;-80
2021/12/12 02:47:14;;;;;;;;;;;11.50;99.90;;;;;;5074085;28;19947;-79
2021/12/12 02:50:07;;;;;;;;;;;11.50;99.90;;;;;;5074356;28;19916;-78
2021/12/12 02:52:32;;;;;;;;;;;11.50;99.90;;;;;;5074207;28;19999;-79
2021/12/12 02:55:07;;;;;;;;;;;11.50;99.90;;;;;;5055767;28;20449;-79
2021/12/12 02:57:32;;;;;;;;;;;11.50;99.90;;;;;;5074152;28;19908;-79
2021/12/12 02:59:58;;;;;;;;;;;11.30;99.90;;;;;;5074143;28;19909;-79
2021/12/12 03:02:28;;;;;;;;;;;11.40;99.90;;;;;;5073841;28;19958;-79
2021/12/12 03:04:56;;;;;;;;;;;11.40;99.90;;;;;;5074286;28;19909;-80
2021/12/12 03:07:22;;;;;;;;;;;11.40;99.90;;;;;;5073759;28;19991;-79
2021/12/12 03:09:50;;;;;;;;;;;11.40;99.90;;;;;;5073808;28;19939;-79
2021/12/12 03:12:23;;;;;;;;;;;11.40;99.90;;;;;;5073461;28;19924;-80
2021/12/12 03:14:48;;;;;;;;;;;11.50;99.90;;;;;;5074148;28;19909;-79
2021/12/12 03:17:16;;;;;;;;;;;11.40;99.90;;;;;;5073664;28;19995;-79
2021/12/12 03:19:46;;;;;;;;;;;11.40;99.90;;;;;;5074253;28;19915;-78
2021/12/12 03:22:14;;;;;;;;;;;11.40;99.90;;;;;;5073193;28;19912;-78
2021/12/12 03:24:40;;;;;;;;;;;11.50;99.90;;;;;;5073747;28;19915;-79
2021/12/12 03:27:06;;;;;;;;;;;11.50;99.90;;;;;;5073782;28;20007;-79
2021/12/12 03:29:31;;;;;;;;;;;11.50;99.90;;;;;;5074183;28;20315;-79
2021/12/12 03:32:04;;;;;;;;;;;11.50;99.90;;;;;;5055482;28;20015;-79
2021/12/12 03:34:32;;;;;;;;;;;11.60;99.90;;;;;;5073774;28;19916;-79
2021/12/12 03:36:58;;;;;;;;;;;11.50;99.90;;;;;;5073442;28;20017;-79
2021/12/12 03:39:34;;;;;;;;;;;11.60;99.90;;;;;;5073683;28;19908;-79
2021/12/12 03:42:01;;;;;;;;;;;11.60;99.90;;;;;;5073670;28;19908;-80
2021/12/12 03:44:29;;;;;;;;;;;11.70;99.90;;;;;;5073478;28;19975;-78
2021/12/12 03:46:56;;;;;;;;;;;11.60;99.90;;;;;;5055445;28;19908;-79
2021/12/12 03:49:22;;;;;;;;;;;11.70;99.90;;;;;;5073563;28;19909;-79
2021/12/12 03:51:48;;;;;;;;;;;11.60;99.90;;;;;;5055379;28;20387;-79
2021/12/12 03:54:14;;;;;;;;;;;11.70;99.90;;;;;;5073349;28;19912;-78
2021/12/12 03:56:41;;;;;;;;;;;11.60;99.90;;;;;;5073445;28;19915;-78
2021/12/12 03:59:07;;;;;;;;;;;11.70;99.90;;;;;;5073330;28;20325;-79
2021/12/12 04:01:37;;;;;;;;;;;11.60;99.90;;;;;;5055287;28;19980;-79
2021/12/12 04:04:11;;;;;;;;;;;11.50;99.90;;;;;;5055143;28;19908;-78
2021/12/12 04:06:37;;;;;;;;;;;11.50;99.90;;;;;;5073323;28;19908;-79
2021/12/12 04:09:03;;;;;;;;;;;11.60;99.90;;;;;;5073413;28;20338;-79
2021/12/12 04:11:31;;;;;;;;;;;11.60;99.90;;;;;;5073175;28;20018;-79
2021/12/12 04:13:58;;;;;;;;;;;11.60;99.90;;;;;;5073229;28;19918;-80
2021/12/12 04:16:27;;;;;;;;;;;11.60;99.90;;;;;;5073267;28;19916;-79
2021/12/12 04:18:53;;;;;;;;;;;11.60;99.90;;;;;;5073176;28;19916;-79
2021/12/12 04:21:20;;;;;;;;;;;11.50;99.90;;;;;;5055101;28;19912;-79
2021/12/12 04:23:46;;;;;;;;;;;11.50;99.90;;;;;;5073069;28;19988;-79
2021/12/12 04:26:11;;;;;;;;;;;11.50;99.90;;;;;;5073589;28;19955;-80
2021/12/12 04:28:38;;;;;;;;;;;11.60;99.90;;;;;;5072972;28;20317;-80
2021/12/12 04:31:04;;;;;;;;;;;11.60;99.90;;;;;;5073119;28;19943;-79
2021/12/12 04:33:29;;;;;;;;;;;11.60;99.90;;;;;;5054911;28;19952;-80
2021/12/12 04:35:55;;;;;;;;;;;11.60;99.90;;;;;;5076551;28;19955;-80
2021/12/12 04:38:22;;;;;;;;;;;11.70;99.90;;;;;;5058557;28;19909;-78
2021/12/12 04:40:48;;;;;;;;;;;11.60;99.90;;;;;;5058485;28;19957;-79
2021/12/12 04:43:13;;;;;;;;;;;11.60;99.90;;;;;;5076722;28;19909;-79
2021/12/12 04:45:51;;;;;;;;;;;11.70;99.90;;;;;;5076413;28;19948;-79
2021/12/12 04:51:09;;;;;;;;;;;11.70;99.90;;;;;;5076198;28;19962;-80
2021/12/12 04:53:49;;;;;;;;;;;11.70;99.90;;;;;;5057966;28;19921;-80
2021/12/12 04:56:21;;;;;;;;;;;11.80;99.90;;;;;;5076223;28;19908;-79
2021/12/12 04:58:52;;;;;;;;;;;11.80;99.90;;;;;;5076274;28;19912;-80
2021/12/12 05:01:33;;;;;;;;;;;11.90;99.90;;;;;;5076224;28;19915;-79
2021/12/12 05:04:02;;;;;;;;;;;11.80;99.90;;;;;;5076344;28;20008;-78
2021/12/12 05:06:30;;;;;;;;;;;11.80;99.90;;;;;;5075847;28;19909;-79
2021/12/12 05:08:59;;;;;;;;;;;11.70;99.90;;;;;;5075968;28;20373;-79
2021/12/12 05:11:28;;;;;;;;;;;11.70;99.90;;;;;;5075589;28;19921;-78
2021/12/12 05:13:55;;;;;;;;;;;11.60;99.90;;;;;;5076254;28;19956;-79
2021/12/12 05:16:29;;;;;;;;;;;11.70;99.90;;;;;;5057874;28;19908;-80
2021/12/12 05:19:27;;;;;;;;;;;11.60;99.90;;;;;;5076267;28;19958;-79
2021/12/12 05:22:09;;;;;;;;;;;11.60;99.90;;;;;;5041881;28;19916;-79
2021/12/12 05:24:36;;;;;;;;;;;11.40;99.90;;;;;;5075740;28;20369;-79
2021/12/12 05:27:04;;;;;;;;;;;11.40;99.90;;;;;;5075712;28;19908;-80
2021/12/12 05:29:34;;;;;;;;;;;11.30;99.90;;;;;;5075855;28;19916;-79
2021/12/12 05:32:01;;;;;;;;;;;11.30;99.90;;;;;;5075696;28;20364;-80
2021/12/12 05:34:30;;;;;;;;;;;11.30;99.90;;;;;;5075346;28;19956;-79
2021/12/12 05:36:57;;;;;;;;;;;11.20;99.90;;;;;;5075411;28;19912;-78
2021/12/12 05:39:24;;;;;;;;;;;11.10;99.90;;;;;;5075353;28;19908;-78
2021/12/12 05:41:51;;;;;;;;;;;11.10;99.90;;;;;;5075310;28;20312;-79
2021/12/12 05:44:17;;;;;;;;;;;11.20;99.90;;;;;;5057346;28;20003;-79
2021/12/12 05:46:43;;;;;;;;;;;11.20;99.90;;;;;;5057121;28;20442;-79
2021/12/12 05:49:09;;;;;;;;;;;11.10;99.90;;;;;;5075223;28;20273;-78
2021/12/12 05:51:35;;;;;;;;;;;11.20;99.90;;;;;;5075149;28;19912;-79
2021/12/12 05:54:01;;;;;;;;;;;11.10;99.90;;;;;;5075099;28;19913;-79
2021/12/12 05:56:29;;;;;;;;;;;11.20;99.90;;;;;;5075098;28;20365;-79
2021/12/12 05:58:55;;;;;;;;;;;11.10;99.90;;;;;;5075040;28;20321;-79
2021/12/12 06:01:22;;;;;;;;;;;11.20;99.90;;;;;;5074906;28;19909;-80
2021/12/12 06:03:48;;;;;;;;;;;11.20;99.90;;;;;;5074931;28;20373;-79
2021/12/12 06:06:15;;;;;;;;;;;11.20;99.90;;;;;;5056881;28;19908;-78
2021/12/12 06:08:42;;;;;;;;;;;11.30;99.90;;;;;;5074942;28;19908;-79
2021/12/12 06:11:08;;;;;;;;;;;11.20;99.90;;;;;;5074631;28;19931;-79
2021/12/12 06:13:35;;;;;;;;;;;11.30;99.90;;;;;;5074887;28;19935;-79
2021/12/12 06:16:01;;;;;;;;;;;11.40;99.90;;;;;;5074955;28;19909;-79
2021/12/12 06:18:28;;;;;;;;;;;11.30;99.90;;;;;;5074743;28;19908;-79
2021/12/12 06:20:54;;;;;;;;;;;11.30;99.90;;;;;;5074670;28;19909;-79
2021/12/12 06:23:20;;;;;;;;;;;11.30;99.90;;;;;;5074525;28;19973;-78
2021/12/12 06:25:47;;;;;;;;;;;11.30;99.90;;;;;;5074452;28;19998;-80
2021/12/12 06:28:18;;;;;;;;;;;11.30;99.90;;;;;;5074644;28;19908;-79
2021/12/12 06:30:44;;;;;;;;;;;11.40;99.90;;;;;;5056119;28;19908;-79
2021/12/12 06:33:10;;;;;;;;;;;11.30;99.90;;;;;;5074709;28;20376;-80
2021/12/12 06:35:36;;;;;;;;;;;11.40;99.90;;;;;;5056388;28;20477;-79
2021/12/12 06:38:06;;;;;;;;;;;11.30;99.90;;;;;;5074341;28;19952;-79
2021/12/12 06:40:32;;;;;;;;;;;11.30;99.90;;;;;;5074201;28;19915;-79
2021/12/12 06:42:59;;;;;;;;;;;11.30;99.90;;;;;;5074175;28;19909;-79
2021/12/12 06:45:24;;;;;;;;;;;11.20;99.90;;;;;;5074343;28;20002;-79
2021/12/12 06:47:50;;;;;;;;;;;11.10;99.90;;;;;;5056088;28;19943;-79
2021/12/12 06:50:16;;;;;;;;;;;11.00;99.90;;;;;;5074293;28;19912;-79
2021/12/12 06:52:42;;;;;;;;;;;11.00;99.90;;;;;;5073897;28;19913;-80
2021/12/12 06:55:09;;;;;;;;;;;11.10;99.90;;;;;;5074168;28;20002;-79
2021/12/12 06:57:35;;;;;;;;;;;11.10;99.90;;;;;;5073467;28;20394;-80
2021/12/12 07:00:01;;;;;;;;;;;11.20;99.90;;;;;;5074061;28;20110;-80
2021/12/12 07:02:27;;;;;;;;;;;11.20;99.90;;;;;;5073881;28;20262;-79
2021/12/12 07:04:53;;;;;;;;;;;11.20;99.90;;;;;;5073953;28;20087;-79
2021/12/12 07:07:18;;;;;;;;;;;11.10;99.90;;;;;;5073857;28;20360;-80
2021/12/12 07:09:47;;;;;;;;;;;11.00;99.90;;;;;;5073989;28;20007;-79
2021/12/12 07:12:14;;;;;;;;;;;11.00;99.90;;;;;;5073445;28;19927;-79
2021/12/12 07:14:40;;;;;;;;;;;11.10;99.90;;;;;;5073714;28;19912;-80
2021/12/12 07:17:06;;;;;;;;;;;11.20;99.90;;;;;;5055700;28;19978;-79
2021/12/12 07:19:32;;;;;;;;;;;11.20;99.90;;;;;;5074146;28;20308;-78
2021/12/12 07:22:01;;;;;;;;;;;11.30;99.90;;;;;;5055718;28;19955;-79
2021/12/12 07:24:27;;;;;;;;;;;11.40;99.90;;;;;;5073633;28;19919;-79
2021/12/12 07:26:53;;;;;;;;;;;11.30;99.90;;;;;;5073692;28;20000;-79
2021/12/12 07:29:19;;;;;;;;;;;11.30;99.90;;;;;;5073579;28;19909;-79
2021/12/12 07:31:45;;;;;;;;;;;11.30;99.90;;;;;;5073634;28;19916;-79
2021/12/12 07:34:12;;;;;;;;;;;11.30;99.90;;;;;;5073526;28;19909;-78
2021/12/12 07:36:41;;;;;;;;;;;11.20;99.90;;;;;;5073521;28;19909;-78
2021/12/12 07:39:09;;;;;;;;;;;11.30;99.90;;;;;;5073418;28;19973;-79
2021/12/12 07:41:35;;;;;;;;;;;11.40;99.90;;;;;;5073514;28;19908;-80
2021/12/12 07:44:03;;;;;;;;;;;11.40;99.90;;;;;;5055522;28;19915;-79
2021/12/12 07:46:29;;;;;;;;;;;11.40;99.90;;;;;;5055379;28;20296;-78
2021/12/12 07:48:55;;;;;;;;;;;11.40;99.90;;;;;;5073411;28;20003;-79
2021/12/12 07:51:22;;;;;;;;;;;11.40;99.90;;;;;;5073404;28;19943;-79
2021/12/12 07:53:52;;;;;;;;;;;11.40;99.90;;;;;;5073259;28;19920;-79
2021/12/12 07:56:22;;;;;;;;;;;11.50;99.90;;;;;;5073579;28;19908;-78
2021/12/12 07:58:47;;;;;;;;;;;11.50;99.90;;;;;;5073313;28;19915;-79
2021/12/12 08:01:13;;;;;;;;;;;11.40;99.90;;;;;;5073846;28;19999;-78
2021/12/12 08:03:39;;;;;;;;;;;11.40;99.90;;;;;;5055243;28;19908;-79
2021/12/12 08:06:06;;;;;;;;;;;11.40;99.90;;;;;;5073249;28;20352;-79
2021/12/12 08:08:32;;;;;;;;;;;11.40;99.90;;;;;;5074968;28;19961;-79
2021/12/12 08:10:59;;;;;;;;;;;11.40;99.90;;;;;;5076932;28;20376;-79
2021/12/12 08:13:25;;;;;;;;;;;11.30;99.90;;;;;;5077300;28;20404;-79
2021/12/12 08:15:50;;;;;;;;;;;11.50;99.90;;;;;;5077193;28;19909;-80
2021/12/12 08:18:18;;;;;;;;;;;11.50;99.90;;;;;;5076979;28;20364;-79
2021/12/12 08:20:45;;;;;;;;;;;11.50;99.90;;;;;;5076910;28;19932;-78
2021/12/12 08:23:12;;;;;;;;;;;11.50;99.90;;;;;;5077105;28;20444;-79
2021/12/12 08:25:37;;;;;;;;;;;11.60;99.90;;;;;;5076768;28;19912;-78
2021/12/12 08:28:04;;;;;;;;;;;11.60;99.90;;;;;;5076860;28;19959;-80
2021/12/12 08:30:31;;;;;;;;;;;11.50;99.90;;;;;;5076815;28;19951;-79
2021/12/12 08:32:57;;;;;;;;;;;11.50;99.90;;;;;;5076596;28;19916;-77
2021/12/12 08:35:23;;;;;;;;;;;11.50;99.90;;;;;;5076615;28;19916;-79
2021/12/12 08:37:49;;;;;;;;;;;11.50;99.90;;;;;;5058575;28;19916;-78
2021/12/12 08:40:21;;;;;;;;;;;11.60;99.90;;;;;;5076503;28;19947;-79
2021/12/12 08:42:47;;;;;;;;;;;11.70;99.90;;;;;;5076467;28;20296;-79
2021/12/12 08:45:15;;;;;;;;;;;11.70;99.90;;;;;;5076395;28;19951;-80
2021/12/12 08:47:41;;;;;;;;;;;11.70;99.90;;;;;;5076421;28;19998;-79
2021/12/12 08:50:08;;;;;;;;;;;11.80;99.90;;;;;;5058313;28;19955;-79
2021/12/12 08:52:38;;;;;;;;;;;11.80;99.90;;;;;;5076251;28;20365;-80
2021/12/12 08:55:14;;;;;;;;;;;11.80;99.90;;;;;;5076222;28;20324;-79
2021/12/12 08:57:49;;;;;;;;;;;11.90;99.90;;;;;;5076400;28;20391;-79
2021/12/12 09:00:18;;;;;;;;;;;11.90;99.90;;;;;;5057959;28;20400;-80
2021/12/12 09:02:44;;;;;;;;;;;11.90;99.90;;;;;;5058161;28;19915;-79
2021/12/12 09:05:13;;;;;;;;;;;12.00;99.90;;;;;;5076245;28;19908;-78
2021/12/12 09:07:44;;;;;;;;;;;12.00;99.90;;;;;;5076024;28;19915;-79
2021/12/12 09:10:28;;;;;;;;;;;12.00;99.90;;;;;;5057730;28;19909;-80
2021/12/12 09:12:53;;;;;;;;;;;11.90;99.90;;;;;;5057486;28;19927;-79
2021/12/12 09:15:23;;;;;;;;;;;12.00;99.90;;;;;;5075892;28;19988;-79
2021/12/12 09:17:50;;;;;;;;;;;12.10;99.90;;;;;;5057929;28;20376;-78
2021/12/12 09:20:27;;;;;;;;;;;12.10;99.90;;;;;;5075042;28;19919;-78
2021/12/12 09:23:01;;;;;;;;;;;12.10;99.90;;;;;;5076222;28;19908;-79
2021/12/12 09:25:51;;;;;;;;;;;12.10;99.90;;;;;;5075719;28;19919;-80
2021/12/12 09:28:46;;;;;;;;;;;12.30;99.90;;;;;;5057406;28;19958;-79
2021/12/12 09:31:14;;;;;;;;;;;12.30;99.90;;;;;;5062082;28;19930;-79
2021/12/12 09:33:45;;;;;;;;;;;12.40;99.90;;;;;;5075471;28;20376;-80
2021/12/12 09:36:31;;;;;;;;;;;12.50;99.90;;;;;;5075478;28;19908;-78
2021/12/12 09:39:17;;;;;;;;;;;12.60;99.90;;;;;;5064408;28;19922;-79
2021/12/12 09:42:12;;;;;;;;;;;12.60;99.90;;;;;;5075487;28;20399;-79
2021/12/12 09:44:50;;;;;;;;;;;12.50;99.90;;;;;;5020914;28;19910;-78
2021/12/12 09:53:12;;;;;;;;;;;12.40;99.90;;;;;;5074977;28;19919;-79
2021/12/12 09:55:44;;;;;;;;;;;12.50;99.90;;;;;;5057166;28;19909;-79
2021/12/12 09:58:22;;;;;;;;;;;12.60;99.90;;;;;;5075307;28;19958;-78
2021/12/12 10:00:58;;;;;;;;;;;12.70;99.90;;;;;;5075482;28;20003;-79
2021/12/12 10:03:32;;;;;;;;;;;12.70;99.90;;;;;;5056921;28;20355;-79
2021/12/12 10:06:01;;;;;;;;;;;12.60;99.90;;;;;;5074838;28;19908;-79
2021/12/12 10:08:26;;;;;;;;;;;12.70;99.90;;;;;;5056734;28;19973;-79
2021/12/12 10:10:56;;;;;;;;;;;12.80;99.90;;;;;;5074697;28;19916;-79
2021/12/12 10:13:34;;;;;;;;;;;12.70;99.90;;;;;;5074975;28;19924;-80
2021/12/12 10:16:02;;;;;;;;;;;12.70;99.90;;;;;;5074568;28;19951;-79
2021/12/12 10:18:38;;;;;;;;;;;12.80;99.90;;;;;;5075008;28;19931;-79
2021/12/12 10:21:08;;;;;;;;;;;12.80;99.90;;;;;;5056670;28;20058;-77
2021/12/12 10:23:46;;;;;;;;;;;12.80;99.90;;;;;;5056420;28;19908;-79
2021/12/12 10:26:15;;;;;;;;;;;12.80;99.90;;;;;;5056591;28;19993;-79
2021/12/12 10:28:50;;;;;;;;;;;12.80;99.90;;;;;;5074643;28;19908;-79
2021/12/12 10:31:19;;;;;;;;;;;12.80;99.90;;;;;;5073653;28;19916;-80
2021/12/12 10:33:57;;;;;;;;;;;12.90;99.90;;;;;;5074116;28;19935;-79
2021/12/12 10:36:29;;;;;;;;;;;12.90;99.90;;;;;;5074625;28;19931;-79
2021/12/12 10:39:01;;;;;;;;;;;13.00;99.90;;;;;;5074366;28;19914;-79
2021/12/12 10:41:47;;;;;;;;;;;13.10;99.90;;;;;;5074118;28;20381;-77
2021/12/12 10:44:12;;;;;;;;;;;12.90;99.90;;;;;;5073515;28;19909;-79
2021/12/12 10:46:56;;;;;;;;;;;13.00;99.90;;;;;;5074174;28;20369;-77
2021/12/12 10:49:27;;;;;;;;;;;12.90;99.90;;;;;;5074059;28;19908;-79
2021/12/12 10:51:57;;;;;;;;;;;12.90;99.90;;;;;;5074105;28;19908;-79
2021/12/12 10:54:26;;;;;;;;;;;12.90;99.90;;;;;;5074403;28;20275;-80
2021/12/12 10:56:58;;;;;;;;;;;13.00;99.90;;;;;;5074016;28;19955;-80
2021/12/12 10:59:27;;;;;;;;;;;13.10;99.90;;;;;;5074092;28;19908;-80
2021/12/12 11:01:55;;;;;;;;;;;13.10;99.90;;;;;;5073972;28;19915;-78
2021/12/12 11:04:33;;;;;;;;;;;13.10;99.90;;;;;;5073968;28;19932;-79
2021/12/12 11:07:00;;;;;;;;;;;13.20;99.90;;;;;;5074071;28;19908;-78
2021/12/12 11:09:35;;;;;;;;;;;12.90;99.90;;;;;;5074116;28;20270;-79
2021/12/12 11:12:18;;;;;;;;;;;13.10;99.90;;;;;;5073556;28;20007;-79
2021/12/12 11:14:49;;;;;;;;;;;13.30;99.90;;;;;;5073816;28;19995;-79
2021/12/12 11:17:22;;;;;;;;;;;13.20;99.90;;;;;;5073715;28;19908;-79
2021/12/12 11:19:50;;;;;;;;;;;13.20;99.90;;;;;;5073805;28;19908;-80
2021/12/12 11:22:19;;;;;;;;;;;13.20;99.90;;;;;;5073691;28;19991;-79
2021/12/12 11:24:50;;;;;;;;;;;13.20;99.90;;;;;;5073661;28;19909;-79
2021/12/12 11:27:19;;;;;;;;;;;13.20;99.90;;;;;;5074141;28;19913;-79
2021/12/12 11:29:54;;;;;;;;;;;13.20;99.90;;;;;;5073727;28;19908;-79
2021/12/12 11:32:23;;;;;;;;;;;13.20;99.90;;;;;;5073626;28;19912;-79
2021/12/12 11:34:50;;;;;;;;;;;13.20;99.90;;;;;;5073530;28;19920;-78
2021/12/12 11:37:19;;;;;;;;;;;13.40;99.90;;;;;;5073516;28;20320;-79
2021/12/12 11:39:54;;;;;;;;;;;13.30;99.90;;;;;;5073410;28;19909;-79
2021/12/12 11:42:22;;;;;;;;;;;13.30;99.90;;;;;;5073484;28;19991;-80
2021/12/12 11:44:51;;;;;;;;;;;13.20;99.90;;;;;;5077632;28;20007;-79
2021/12/12 11:47:22;;;;;;;;;;;13.20;99.90;;;;;;5077575;28;19920;-78
2021/12/12 11:50:00;;;;;;;;;;;13.30;99.90;;;;;;5077600;28;20390;-79
2021/12/12 11:52:38;;;;;;;;;;;13.30;99.90;;;;;;5077435;28;19923;-79
2021/12/12 11:55:10;;;;;;;;;;;13.30;99.90;;;;;;5077566;28;19916;-78
2021/12/12 11:57:58;;;;;;;;;;;13.30;99.90;;;;;;5059396;28;19908;-79
2021/12/12 12:00:30;;;;;;;;;;;13.40;99.90;;;;;;5076729;28;20403;-79
2021/12/12 12:03:12;;;;;;;;;;;13.30;99.90;;;;;;5077355;28;19908;-79
2021/12/12 12:05:42;;;;;;;;;;;13.40;99.90;;;;;;5077364;28;19908;-79
2021/12/12 12:08:27;;;;;;;;;;;13.30;99.90;;;;;;5077156;28;19999;-79
2021/12/12 12:11:05;;;;;;;;;;;13.30;99.90;;;;;;5059164;28;19915;-80
2021/12/12 12:13:52;;;;;;;;;;;13.30;99.90;;;;;;5077031;28;20301;-79
2021/12/12 12:16:36;;;;;;;;;;;13.40;99.90;;;;;;5076999;28;20045;-79
2021/12/12 12:19:21;;;;;;;;;;;13.40;99.90;;;;;;5058973;28;19993;-80
2021/12/12 12:21:52;;;;;;;;;;;13.20;99.90;;;;;;5058945;28;19965;-79
2021/12/12 12:24:20;;;;;;;;;;;13.30;99.90;;;;;;5077023;28;20004;-79
2021/12/12 12:26:56;;;;;;;;;;;13.30;99.90;;;;;;5076795;28;19940;-79
2021/12/12 12:29:21;;;;;;;;;;;13.30;99.90;;;;;;5058597;28;20373;-79
2021/12/12 12:32:07;;;;;;;;;;;13.30;99.90;;;;;;5058715;28;19999;-79
2021/12/12 12:34:51;;;;;;;;;;;13.40;99.90;;;;;;5076168;28;19912;-79
2021/12/12 12:37:36;;;;;;;;;;;13.50;99.90;;;;;;5076576;28;20007;-79
2021/12/12 12:40:20;;;;;;;;;;;13.60;99.90;;;;;;5076614;28;19909;-78
2021/12/12 12:43:04;;;;;;;;;;;13.60;99.90;;;;;;5076792;28;19912;-79
2021/12/12 12:45:36;;;;;;;;;;;13.50;99.90;;;;;;5076427;28;19909;-81
2021/12/12 12:48:13;;;;;;;;;;;13.40;99.90;;;;;;5076462;28;20444;-79
2021/12/12 12:50:44;;;;;;;;;;;13.30;99.90;;;;;;5076378;28;19908;-79
2021/12/12 12:53:25;;;;;;;;;;;13.40;99.90;;;;;;5076616;28;20272;-79
2021/12/12 12:56:09;;;;;;;;;;;13.30;99.90;;;;;;5057155;28;19909;-78
2021/12/12 12:58:43;;;;;;;;;;;13.20;99.90;;;;;;5076318;28;20307;-78
2021/12/12 13:01:13;;;;;;;;;;;13.40;99.90;;;;;;5076308;28;19909;-79
2021/12/12 13:03:48;;;;;;;;;;;13.30;99.90;;;;;;5076168;28;20014;-79
2021/12/12 13:06:16;;;;;;;;;;;13.40;99.90;;;;;;5076121;28;19908;-80
2021/12/12 13:08:51;;;;;;;;;;;13.30;99.90;;;;;;5076087;28;19908;-79
2021/12/12 13:11:18;;;;;;;;;;;13.30;99.90;;;;;;5075991;28;19922;-79
2021/12/12 13:14:04;;;;;;;;;;;13.20;99.90;;;;;;5057698;28;19912;-79
2021/12/12 13:16:35;;;;;;;;;;;13.20;99.90;;;;;;5057372;28;20326;-79
2021/12/12 13:19:31;;;;;;;;;;;13.20;99.90;;;;;;5075878;28;20349;-79
2021/12/12 13:22:02;;;;;;;;;;;13.20;99.90;;;;;;5044959;28;19932;-79
2021/12/12 13:24:28;;;;;;;;;;;13.10;99.90;;;;;;5075792;28;19909;-78
2021/12/12 13:27:35;;;;;;;;;;;13.10;99.90;;;;;;5075751;28;20022;-79
2021/12/12 13:30:03;;;;;;;;;;;13.10;99.90;;;;;;5057371;28;19962;-78
2021/12/12 13:32:36;;;;;;;;;;;13.20;99.90;;;;;;5057362;28;20345;-78
2021/12/12 13:35:20;;;;;;;;;;;13.40;99.90;;;;;;5057357;28;19915;-78
2021/12/12 13:37:54;;;;;;;;;;;13.40;99.90;;;;;;5075668;28;20289;-79
2021/12/12 13:40:24;;;;;;;;;;;13.30;99.90;;;;;;5075398;28;20276;-79
2021/12/12 13:42:57;;;;;;;;;;;13.30;99.90;;;;;;5075355;28;19943;-79
2021/12/12 13:45:36;;;;;;;;;;;13.30;99.90;;;;;;5075343;28;19909;-79
2021/12/12 13:48:07;;;;;;;;;;;13.30;99.90;;;;;;5075252;28;20353;-79
2021/12/12 13:50:39;;;;;;;;;;;13.30;99.90;;;;;;5075143;28;19952;-80
2021/12/12 13:53:05;;;;;;;;;;;13.30;99.90;;;;;;5075112;28;19912;-78
2021/12/12 13:55:39;;;;;;;;;;;13.40;99.90;;;;;;5075103;28;19915;-79
2021/12/12 13:58:16;;;;;;;;;;;13.30;99.90;;;;;;5075137;28;19909;-78
2021/12/12 14:00:44;;;;;;;;;;;13.30;99.90;;;;;;5075018;28;19913;-77
2021/12/12 14:03:15;;;;;;;;;;;13.20;99.90;;;;;;5075331;28;19908;-79
2021/12/12 14:05:49;;;;;;;;;;;13.20;99.90;;;;;;5074793;28;19914;-79
2021/12/12 14:08:17;;;;;;;;;;;13.20;99.90;;;;;;5074943;28;20003;-79
2021/12/12 14:10:44;;;;;;;;;;;13.20;99.90;;;;;;5075060;28;19908;-79
2021/12/12 14:13:12;;;;;;;;;;;13.20;99.90;;;;;;5056347;28;19920;-79
2021/12/12 14:15:47;;;;;;;;;;;13.30;99.90;;;;;;5074670;28;19912;-79
2021/12/12 14:18:13;;;;;;;;;;;13.40;99.90;;;;;;5056527;28;20003;-79
2021/12/12 14:20:42;;;;;;;;;;;13.20;99.90;;;;;;5056582;28;20291;-78
2021/12/12 14:23:09;;;;;;;;;;;13.20;99.90;;;;;;5074528;28;20372;-78
2021/12/12 14:25:36;;;;;;;;;;;13.20;99.90;;;;;;5074483;28;19947;-79
2021/12/12 14:28:03;;;;;;;;;;;13.10;99.90;;;;;;5074430;28;19915;-78
2021/12/12 14:30:31;;;;;;;;;;;13.10;99.90;;;;;;5074383;28;20266;-79
2021/12/12 14:33:00;;;;;;;;;;;13.00;99.90;;;;;;5074269;28;19916;-78
2021/12/12 14:35:30;;;;;;;;;;;13.10;99.90;;;;;;5074379;28;19939;-79
2021/12/12 14:37:56;;;;;;;;;;;13.10;99.90;;;;;;5074279;28;19956;-79
2021/12/12 14:40:25;;;;;;;;;;;13.10;99.90;;;;;;5074301;28;20393;-80
2021/12/12 14:43:14;;;;;;;;;;;13.10;99.90;;;;;;5056292;28;19962;-80
2021/12/12 14:45:43;;;;;;;;;;;13.10;99.90;;;;;;5066231;28;19954;-79
2021/12/12 14:48:11;;;;;;;;;;;13.10;99.90;;;;;;5074302;28;20372;-79
2021/12/12 14:50:48;;;;;;;;;;;13.20;99.90;;;;;;5073952;28;19912;-79
2021/12/12 14:53:17;;;;;;;;;;;13.20;99.90;;;;;;5074138;28;19938;-79
2021/12/12 14:55:48;;;;;;;;;;;13.10;99.90;;;;;;5074000;28;20395;-79
2021/12/12 14:58:15;;;;;;;;;;;12.90;99.90;;;;;;5074173;28;19999;-79
2021/12/12 15:00:45;;;;;;;;;;;12.90;99.90;;;;;;5055933;28;19908;-79